Time;durP1;ratioP1;P1;durP2;ratioP2;P2;SDS_P1;SDS_P2;PMS_P1;PMS_P2;Temp;Humidity;BMP_temperature;BMP_pressure;BME280_temperature;BME280_humidity;BME280_pressure;Samples;Min_cycle;Max_cycle;Signal;HPM_P1;HPM_P2
2021/03/20 00:01:42;;;;;;;2.83;1.33;;;;;;;-2.13;59.54;101021.00;10396218;28;20458;-68
2021/03/20 00:06:48;;;;;;;4.05;1.42;;;;;;;-2.05;59.75;101029.91;10379789;28;20046;-67
2021/03/20 00:11:50;;;;;;;2.03;1.20;;;;;;;-2.22;60.29;101028.41;10396129;28;20096;-68
2021/03/20 00:16:52;;;;;;;2.22;1.52;;;;;;;-2.16;60.13;101028.66;10396866;28;20053;-67
2021/03/20 00:21:56;;;;;;;3.85;1.38;;;;;;;-2.30;60.53;101033.31;10402591;28;20054;-67
2021/03/20 00:26:58;;;;;;;4.60;1.35;;;;;;;-2.33;61.15;101038.34;10398755;28;20042;-67
2021/03/20 00:31:59;;;;;;;3.33;1.80;;;;;;;-2.67;62.00;101040.50;10396645;28;20045;-68
2021/03/20 00:37:01;;;;;;;3.40;1.33;;;;;;;-2.85;62.22;101041.53;10377790;28;20413;-68
2021/03/20 00:42:02;;;;;;;3.85;1.25;;;;;;;-2.70;61.21;101059.28;10377189;28;20049;-68
2021/03/20 00:47:04;;;;;;;3.40;1.23;;;;;;;-2.84;62.06;101048.44;10393043;28;20492;-68
2021/03/20 00:52:06;;;;;;;2.90;1.27;;;;;;;-2.76;61.71;101048.75;10393863;28;20061;-68
2021/03/20 00:57:07;;;;;;;3.05;1.38;;;;;;;-2.87;62.39;101048.34;10393859;28;20093;-68
2021/03/20 01:02:08;;;;;;;3.90;1.27;;;;;;;-2.93;62.17;101055.81;10392759;28;20038;-69
2021/03/20 01:07:10;;;;;;;4.00;1.50;;;;;;;-2.99;62.33;101065.00;10391837;28;20092;-67
2021/03/20 01:12:12;;;;;;;2.08;1.48;;;;;;;-2.94;63.05;101066.03;10389787;28;20509;-68
2021/03/20 01:17:13;;;;;;;4.35;1.45;;;;;;;-3.01;62.44;101064.94;10389176;28;20041;-68
2021/03/20 01:22:14;;;;;;;4.45;1.45;;;;;;;-3.25;63.39;101061.38;10372213;28;20073;-67
2021/03/20 01:27:15;;;;;;;4.82;1.52;;;;;;;-3.06;63.08;101069.00;10388367;28;20078;-68
2021/03/20 01:32:17;;;;;;;3.45;1.30;;;;;;;-3.02;63.34;101065.72;10390697;28;20046;-67
2021/03/20 01:37:18;;;;;;;2.90;1.67;;;;;;;-3.32;64.08;101067.94;10388478;28;20118;-68
2021/03/20 01:42:22;;;;;;;2.30;1.63;;;;;;;-3.20;64.40;101075.28;10388738;28;20058;-68
2021/03/20 01:47:24;;;;;;;3.83;1.45;;;;;;;-3.32;64.91;101079.16;10388087;28;20045;-68
2021/03/20 01:52:31;;;;;;;3.08;1.83;;;;;;;-3.43;64.86;101074.38;10387721;28;20145;-68
2021/03/20 01:57:39;;;;;;;2.72;1.50;;;;;;;-3.41;65.50;101077.88;10369364;28;20092;-68
2021/03/20 02:02:41;;;;;;;7.53;1.50;;;;;;;-3.39;65.08;101071.97;10386230;28;20185;-68
2021/03/20 02:07:43;;;;;;;8.00;3.38;;;;;;;-3.26;64.86;101073.38;10385841;28;20042;-68
2021/03/20 02:12:50;;;;;;;3.88;1.50;;;;;;;-3.44;65.60;101063.22;10385906;28;20100;-68
2021/03/20 02:18:00;;;;;;;4.60;1.50;;;;;;;-3.40;65.80;101069.34;10385292;28;20119;-68
2021/03/20 02:23:07;;;;;;;2.58;1.50;;;;;;;-3.48;65.81;101081.00;10367336;28;20049;-68
2021/03/20 02:28:26;;;;;;;3.35;1.48;;;;;;;-3.49;66.13;101081.84;10384583;28;20038;-67
2021/03/20 02:33:33;;;;;;;4.13;1.70;;;;;;;-3.49;66.03;101086.97;10386574;28;20414;-69
2021/03/20 02:38:50;;;;;;;7.30;1.75;;;;;;;-3.43;65.81;101097.50;10385628;28;20069;-67
2021/03/20 02:44:00;;;;;;;4.55;1.52;;;;;;;-3.38;65.77;101098.56;10368470;28;20053;-67
2021/03/20 02:49:12;;;;;;;8.77;2.67;;;;;;;-3.59;66.78;101089.13;10369139;28;20073;-68
2021/03/20 02:54:27;;;;;;;4.57;2.45;;;;;;;-3.49;66.50;101093.00;10385397;28;20046;-71
2021/03/20 02:59:35;;;;;;;2.85;1.33;;;;;;;-3.43;66.08;101084.66;10367301;28;20500;-68
2021/03/20 03:04:47;;;;;;;3.45;1.63;;;;;;;-3.67;66.96;101090.53;10384266;28;20050;-71
2021/03/20 03:10:12;;;;;;;7.40;2.20;;;;;;;-3.52;66.87;101076.56;10385594;28;20381;-71
2021/03/20 03:15:20;;;;;;;4.38;1.70;;;;;;;-3.45;66.92;101086.25;10349076;28;20096;-70
2021/03/20 03:20:27;;;;;;;3.85;1.77;;;;;;;-3.46;67.26;101084.50;10384483;28;20050;-71
2021/03/20 03:25:31;;;;;;;5.35;1.73;;;;;;;-3.54;67.10;101094.50;10373035;28;20050;-70
2021/03/20 03:44:07;;;;;;;4.47;1.98;;;;;;;-3.84;68.35;101087.22;10389370;28;20156;-69
2021/03/20 03:49:13;;;;;;;5.47;2.30;;;;;;;-4.06;69.03;101089.69;10389687;28;20117;-71
2021/03/20 03:54:14;;;;;;;3.92;1.75;;;;;;;-4.14;69.04;101089.34;10390052;28;20050;-70
2021/03/20 03:59:28;;;;;;;4.22;1.98;;;;;;;-4.02;68.89;101098.41;10373310;28;20046;-70
2021/03/20 04:04:46;;;;;;;2.97;1.75;;;;;;;-3.86;67.85;101093.97;10390995;28;20512;-71
2021/03/20 04:10:01;;;;;;;3.15;2.17;;;;;;;-4.01;68.74;101100.16;10388734;28;20041;-69
2021/03/20 04:15:09;;;;;;;4.15;2.22;;;;;;;-4.32;69.68;101098.78;10387771;28;20133;-69
2021/03/20 04:20:16;;;;;;;4.05;1.75;;;;;;;-4.11;69.17;101104.88;10387963;28;20064;-70
2021/03/20 04:25:26;;;;;;;4.30;1.80;;;;;;;-4.11;68.95;101107.47;10388294;28;20065;-70
2021/03/20 04:30:31;;;;;;;8.73;2.67;;;;;;;-4.41;70.19;101127.47;10388324;28;20068;-70
2021/03/20 04:36:01;;;;;;;8.38;2.53;;;;;;;-4.51;70.53;101124.44;10388672;28;20084;-70
2021/03/20 04:41:09;;;;;;;5.80;2.25;;;;;;;-4.47;70.29;101141.72;10378138;28;20050;-71
2021/03/20 04:46:20;;;;;;;4.15;2.15;;;;;;;-4.57;70.37;101146.41;10370743;28;20495;-68
2021/03/20 04:51:26;;;;;;;3.05;1.90;;;;;;;-4.48;70.14;101160.47;10367715;28;20125;-70
2021/03/20 04:56:28;;;;;;;4.35;2.92;;;;;;;-4.45;70.58;101163.19;10383344;28;20048;-69
2021/03/20 05:01:38;;;;;;;2.75;1.88;;;;;;;-4.26;70.05;101157.22;10383926;28;20104;-69
2021/03/20 05:06:40;;;;;;;4.18;1.92;;;;;;;-4.40;70.39;101161.72;10365724;28;20041;-69
2021/03/20 05:11:56;;;;;;;4.35;1.70;;;;;;;-4.19;69.66;101174.69;10385257;28;20175;-68
2021/03/20 05:17:00;;;;;;;4.97;2.00;;;;;;;-4.34;69.86;101169.69;10365847;28;20049;-68
2021/03/20 05:22:04;;;;;;;3.40;1.60;;;;;;;-4.35;69.71;101173.06;10383186;28;20129;-69
2021/03/20 05:27:07;;;;;;;4.10;2.20;;;;;;;-4.38;70.07;101178.97;10381667;28;20034;-68
2021/03/20 05:32:13;;;;;;;8.48;2.22;;;;;;;-4.25;69.53;101164.09;10365185;28;20466;-68
2021/03/20 05:37:22;;;;;;;6.40;2.08;;;;;;;-4.29;69.51;101177.59;10363387;28;20124;-68
2021/03/20 05:43:04;;;;;;;4.68;1.80;;;;;;;-4.33;69.63;101177.50;10364179;28;20049;-67
2021/03/20 05:48:20;;;;;;;4.25;2.05;;;;;;;-3.92;68.80;101186.19;10381919;28;20068;-68
2021/03/20 05:53:39;;;;;;;5.43;2.28;;;;;;;-4.03;68.84;101189.94;10380972;28;20431;-68
2021/03/20 05:59:01;;;;;;;5.90;2.10;;;;;;;-3.92;68.70;101196.47;10381350;28;20431;-68
2021/03/20 06:04:15;;;;;;;4.18;2.25;;;;;;;-3.76;68.21;101205.75;10380602;28;20045;-67
2021/03/20 06:09:40;;;;;;;2.60;1.73;;;;;;;-3.74;68.16;101204.13;10379320;28;20038;-70
2021/03/20 06:14:49;;;;;;;4.50;1.75;;;;;;;-2.45;64.69;101205.25;10362562;28;20057;-68
2021/03/20 06:20:23;;;;;;;4.25;2.25;;;;;;;-1.12;60.08;101201.53;10379620;28;20096;-70
2021/03/20 06:25:45;;;;;;;3.97;1.48;;;;;;;0.30;56.77;101197.38;10375297;28;20064;-66
2021/03/20 06:30:50;;;;;;;2.92;1.60;;;;;;;2.40;50.94;101195.56;10380569;28;20054;-70
2021/03/20 06:36:07;;;;;;;3.67;1.90;;;;;;;1.03;54.70;101204.53;10380886;28;20510;-68
2021/03/20 06:41:12;;;;;;;;;;;;;;;1.19;54.47;101205.78;10365183;28;20137;-65
2021/03/20 06:46:26;;;;;;;2.80;1.50;;;;;;;0.15;56.39;101195.22;10385387;28;20024;-68
2021/03/20 06:51:29;;;;;;;4.93;1.75;;;;;;;-0.14;57.26;101195.22;10379584;28;20053;-69
2021/03/20 06:56:35;;;;;;;2.50;1.45;;;;;;;0.05;56.40;101195.81;10347376;28;20411;-69
2021/03/20 07:01:52;;;;;;;3.60;1.70;;;;;;;0.04;57.53;101210.41;10387970;28;20054;-68
2021/03/20 07:07:17;;;;;;;2.97;1.50;;;;;;;2.13;52.62;101206.25;10385009;28;20137;-67
2021/03/20 07:12:24;;;;;;;3.30;1.65;;;;;;;3.36;49.01;101212.88;10361319;28;20076;-69
2021/03/20 07:17:38;;;;;;;6.00;2.42;;;;;;;3.45;49.50;101199.16;10386133;28;20048;-69
2021/03/20 07:22:47;;;;;;;3.15;1.70;;;;;;;5.62;44.83;101200.78;10351836;28;20049;-67
2021/03/20 07:27:50;;;;;;;3.15;1.58;;;;;;;6.18;43.07;101188.13;10367235;28;20046;-67
2021/03/20 07:32:51;;;;;;;3.25;1.92;;;;;;;4.06;46.50;101202.66;10367189;28;20056;-67
2021/03/20 07:37:54;;;;;;;3.33;3.03;;;;;;;4.41;46.93;101208.31;10367424;28;20072;-66
2021/03/20 07:43:10;;;;;;;3.05;1.85;;;;;;;1.48;51.19;101222.94;10384608;28;20388;-67
2021/03/20 07:48:26;;;;;;;3.90;2.30;;;;;;;0.98;53.23;101219.97;10383098;28;20049;-66
2021/03/20 07:53:28;;;;;;;3.72;2.00;;;;;;;0.66;54.55;101219.09;10383721;28;20050;-68
2021/03/20 07:59:00;;;;;;;3.53;2.08;;;;;;;0.93;53.03;101233.59;10384349;28;20122;-68
2021/03/20 08:04:10;;;;;;;4.18;1.70;;;;;;;0.93;52.04;101228.41;10383320;28;20053;-67
2021/03/20 08:09:23;;;;;;;3.38;1.58;;;;;;;1.30;52.05;101225.09;10381750;28;20113;-68
2021/03/20 08:14:45;;;;;;;3.22;1.70;;;;;;;2.89;47.87;101218.16;10383338;28;20393;-68
2021/03/20 08:19:47;;;;;;;4.63;1.80;;;;;;;3.68;48.09;101221.22;10365658;28;20078;-68
2021/03/20 08:25:16;;;;;;;1.83;1.02;;;;;;;1.74;47.94;101233.06;10350454;28;20338;-67
2021/03/20 08:30:30;;;;;;;3.03;1.30;;;;;;;1.27;48.94;101225.00;10383295;28;20116;-66
2021/03/20 08:35:37;;;;;;;2.03;1.27;;;;;;;1.18;49.44;101224.75;10364327;28;20050;-68
2021/03/20 08:41:02;;;;;;;5.15;1.30;;;;;;;1.34;51.62;101239.88;10382674;28;20046;-68
2021/03/20 08:46:31;;;;;;;3.55;1.17;;;;;;;1.99;48.75;101247.44;10382224;28;20504;-67
2021/03/20 08:52:04;;;;;;;3.40;1.25;;;;;;;1.75;47.54;101245.16;10348349;28;20042;-66
2021/03/20 08:57:20;;;;;;;3.25;1.38;;;;;;;1.02;49.12;101249.41;10382380;28;20052;-65
2021/03/20 09:02:25;;;;;;;4.35;1.95;;;;;;;0.09;53.59;101258.00;10393595;28;20045;-64
2021/03/20 09:07:39;;;;;;;5.28;2.50;;;;;;;0.37;53.57;101257.09;10385568;28;20046;-64
2021/03/20 09:12:44;;;;;;;2.72;1.60;;;;;;;0.82;52.89;101245.41;10420025;28;20077;-63
2021/03/20 09:17:46;;;;;;;3.78;1.60;;;;;;;0.35;54.85;101247.50;10404012;28;20052;-63
2021/03/20 09:22:49;;;;;;;3.17;1.83;;;;;;;0.44;53.23;101248.69;10418469;28;20045;-62
2021/03/20 09:28:02;;;;;;;5.22;2.20;;;;;;;0.28;53.45;101254.22;10383084;28;20042;-64
2021/03/20 09:33:12;;;;;;;3.00;1.52;;;;;;;0.31;53.43;101254.34;10374968;28;20095;-64
2021/03/20 09:38:36;;;;;;;3.35;1.60;;;;;;;0.28;53.89;101254.22;10380011;28;20038;-64
2021/03/20 09:43:51;;;;;;;2.80;1.45;;;;;;;-0.12;52.36;101247.84;10381009;28;20041;-60
2021/03/20 09:48:54;;;;;;;4.40;2.50;;;;;;;-0.34;53.68;101261.81;10389529;28;20045;-63
2021/03/20 09:53:56;;;;;;;2.83;1.40;;;;;;;0.02;53.70;101261.19;10381480;28;20049;-62
2021/03/20 09:58:59;;;;;;;2.80;1.63;;;;;;;0.55;52.13;101254.16;10401633;28;20041;-63
2021/03/20 10:04:00;;;;;;;4.88;1.50;;;;;;;0.77;50.31;101255.63;10389868;28;20566;-63
2021/03/20 10:09:03;;;;;;;2.85;1.30;;;;;;;1.57;47.77;101258.56;10380544;28;20042;-63
2021/03/20 10:14:50;;;;;;;2.97;1.10;;;;;;;1.17;49.62;101265.34;10373639;28;20046;-63
2021/03/20 10:20:17;;;;;;;1.95;0.88;;;;;;;0.78;47.97;101257.38;10381544;28;20107;-63
2021/03/20 10:25:19;;;;;;;2.37;1.30;;;;;;;0.56;49.40;101257.59;10363549;28;20089;-63
2021/03/20 10:30:28;;;;;;;2.70;1.43;;;;;;;0.72;50.37;101258.09;10379263;28;20084;-64
2021/03/20 10:35:33;;;;;;;2.58;1.33;;;;;;;0.95;50.56;101250.06;10404854;28;20072;-63
2021/03/20 10:40:34;;;;;;;4.78;1.58;;;;;;;1.27;46.69;101248.31;10411556;28;20044;-64
2021/03/20 10:45:38;;;;;;;4.65;1.83;;;;;;;1.53;49.17;101243.78;10414358;28;20062;-65
2021/03/20 10:50:46;;;;;;;2.55;1.20;;;;;;;2.06;47.05;101243.28;10397175;28;20095;-64
2021/03/20 10:55:54;;;;;;;2.03;0.93;;;;;;;1.69;46.78;101238.13;10411551;28;20042;-64
2021/03/20 11:00:57;;;;;;;3.05;1.30;;;;;;;1.83;47.49;101240.16;10401245;28;20060;-64
2021/03/20 11:06:27;;;;;;;2.35;1.20;;;;;;;2.39;46.62;101244.00;10402654;28;20033;-64
2021/03/20 11:11:31;;;;;;;4.07;1.15;;;;;;;2.34;46.16;101239.53;10301233;28;20105;-63
2021/03/20 11:16:40;;;;;;;3.63;1.35;;;;;;;1.89;47.07;101245.47;10302169;28;20074;-64
2021/03/20 11:21:45;;;;;;;3.78;1.48;;;;;;;2.09;46.09;101231.25;10302439;28;20058;-63
2021/03/20 11:26:48;;;;;;;2.47;1.45;;;;;;;1.60;48.98;101229.25;10301824;28;20460;-63
2021/03/20 11:31:58;;;;;;;3.97;1.73;;;;;;;1.83;49.91;101235.84;10283736;28;20055;-64
2021/03/20 11:37:01;;;;;;;4.15;2.35;;;;;;;1.44;53.49;101228.88;10278505;28;20513;-64
2021/03/20 11:42:08;;;;;;;4.15;2.15;;;;;;;0.97;52.92;101218.22;10265975;28;20051;-63
2021/03/20 11:47:22;;;;;;;3.83;2.08;;;;;;;1.19;53.14;101210.97;10337604;28;20117;-65
2021/03/20 11:52:26;;;;;;;3.17;1.70;;;;;;;1.56;49.97;101209.28;10385212;28;20076;-64
2021/03/20 11:57:36;;;;;;;2.55;1.40;;;;;;;1.67;51.33;101200.91;10372493;28;20068;-62
2021/03/20 12:02:39;;;;;;;1.95;1.30;;;;;;;1.50;51.87;101194.47;10387930;28;20046;-65
2021/03/20 12:07:42;;;;;;;2.83;1.60;;;;;;;1.32;51.82;101184.53;10370665;28;20504;-64
2021/03/20 12:12:45;;;;;;;3.60;1.65;;;;;;;2.02;52.53;101157.59;10388925;28;20046;-64
2021/03/20 12:17:48;;;;;;;4.03;1.90;;;;;;;1.63;52.13;101151.56;10389939;28;20038;-65
2021/03/20 12:22:55;;;;;;;3.60;1.70;;;;;;;1.85;50.67;101146.00;10390269;28;20053;-63
2021/03/20 12:28:33;;;;;;;2.50;1.70;;;;;;;1.48;51.88;101144.34;10390125;28;20046;-64
2021/03/20 12:34:11;;;;;;;4.20;1.45;;;;;;;1.25;52.60;101141.22;10385379;28;20061;-64
2021/03/20 12:39:21;;;;;;;3.67;1.60;;;;;;;1.24;52.38;101144.66;10367293;28;20058;-64
2021/03/20 12:44:25;;;;;;;2.08;1.25;;;;;;;1.12;52.70;101144.34;10380029;28;20046;-64
2021/03/20 12:49:29;;;;;;;3.95;1.70;;;;;;;0.71;54.29;101137.31;10387142;28;20053;-63
2021/03/20 12:54:35;;;;;;;3.13;1.45;;;;;;;0.80;52.06;101128.00;10425761;28;20052;-64
2021/03/20 12:59:36;;;;;;;3.15;1.63;;;;;;;1.05;53.37;101126.91;10426340;28;20442;-63
2021/03/20 13:04:46;;;;;;;2.20;1.42;;;;;;;1.22;52.86;101125.59;10427730;28;20091;-66
2021/03/20 13:09:53;;;;;;;2.50;1.42;;;;;;;1.72;48.94;101105.97;10393673;28;20076;-63
2021/03/20 13:14:55;;;;;;;2.13;1.27;;;;;;;1.93;49.29;101118.53;10428563;28;20038;-66
2021/03/20 13:19:57;;;;;;;3.08;1.30;;;;;;;2.42;46.82;101098.72;10408879;28;20041;-64
2021/03/20 13:24:58;;;;;;;5.15;1.33;;;;;;;2.35;48.36;101111.59;10408037;28;20385;-65
2021/03/20 13:30:00;;;;;;;3.22;1.17;;;;;;;1.74;49.36;101106.91;10409004;28;20038;-65
2021/03/20 13:35:03;;;;;;;2.95;1.30;;;;;;;1.83;48.40;101102.75;10423254;28;20521;-64
2021/03/20 13:40:05;;;;;;;2.35;1.20;;;;;;;2.21;47.08;101094.03;10422294;28;20037;-64
2021/03/20 13:45:10;;;;;;;4.05;1.20;;;;;;;2.42;46.43;101093.53;10421641;28;20403;-64
2021/03/20 13:50:12;;;;;;;3.75;1.65;;;;;;;1.89;48.50;101100.28;10390026;28;20100;-65
2021/03/20 13:55:14;;;;;;;3.30;1.17;;;;;;;1.84;51.08;101097.59;10379261;28;20038;-64
2021/03/20 14:00:16;;;;;;;3.63;1.77;;;;;;;1.31;53.16;101114.56;10379785;28;20050;-64
2021/03/20 14:05:18;;;;;;;3.25;1.38;;;;;;;1.03;54.20;101111.34;10379058;28;20046;-65
2021/03/20 14:10:26;;;;;;;2.92;1.63;;;;;;;1.36;54.07;101108.66;10379369;28;20052;-65
2021/03/20 14:15:28;;;;;;;3.03;1.48;;;;;;;1.48;52.58;101100.28;10379782;28;20046;-65
2021/03/20 14:20:34;;;;;;;3.75;1.40;;;;;;;1.62;51.18;101088.50;10379480;28;20488;-65
2021/03/20 14:25:37;;;;;;;2.22;1.25;;;;;;;1.75;50.31;101074.06;10378859;28;20088;-63
2021/03/20 14:30:47;;;;;;;3.90;1.90;;;;;;;1.72;52.18;101066.22;10378546;28;20050;-63
2021/03/20 14:35:51;;;;;;;5.03;1.33;;;;;;;1.97;49.01;101058.09;10378770;28;20084;-64
2021/03/20 14:40:54;;;;;;;3.30;1.52;;;;;;;1.79;50.33;101052.56;10360235;28;20068;-65
2021/03/20 14:45:56;;;;;;;2.80;1.33;;;;;;;1.57;49.90;101055.56;10360776;28;20042;-64
2021/03/20 14:50:57;;;;;;;1.52;1.20;;;;;;;1.65;50.30;101038.44;10395935;28;20049;-64
2021/03/20 14:55:59;;;;;;;2.35;1.15;;;;;;;1.96;49.24;101033.03;10399267;28;20103;-67
2021/03/20 15:01:01;;;;;;;2.45;1.60;;;;;;;1.47;49.91;101034.63;10387295;28;20046;-68
2021/03/20 15:06:03;;;;;;;2.92;1.55;;;;;;;1.94;47.36;101021.72;10360198;28;20443;-68
2021/03/20 15:11:05;;;;;;;2.72;1.17;;;;;;;1.61;48.58;101016.78;10360109;28;20496;-67
2021/03/20 15:16:07;;;;;;;2.72;1.42;;;;;;;1.53;49.12;101013.16;10384144;28;20407;-66
2021/03/20 15:21:16;;;;;;;3.42;1.40;;;;;;;1.43;50.37;101006.03;10386926;28;20042;-66
2021/03/20 15:26:19;;;;;;;;;;;;;;;1.73;49.20;101000.59;10385837;28;20038;-67
2021/03/20 15:31:23;;;;;;;3.00;1.38;;;;;;;1.60;50.49;101003.81;10367839;28;19960;-67
2021/03/20 15:36:25;;;;;;;2.03;1.35;;;;;;;1.57;49.98;100998.53;10366984;28;20046;-67
2021/03/20 15:41:26;;;;;;;2.63;1.52;;;;;;;1.51;50.68;100991.53;10383555;28;20052;-67
2021/03/20 15:46:27;;;;;;;3.05;1.67;;;;;;;1.40;51.07;100993.88;10387157;28;20044;-66
2021/03/20 15:51:29;;;;;;;5.20;1.60;;;;;;;1.23;52.28;100988.34;10386508;28;20065;-68
2021/03/20 15:56:31;;;;;;;3.83;1.60;;;;;;;1.22;50.91;100988.31;10411934;28;20042;-68
2021/03/20 16:01:32;;;;;;;2.58;1.60;;;;;;;1.48;50.90;100981.97;10404751;28;20056;-67
2021/03/20 16:06:33;;;;;;;1.88;1.45;;;;;;;1.19;51.60;100983.94;10407992;28;20126;-67
2021/03/20 16:11:35;;;;;;;3.03;2.15;;;;;;;1.15;52.72;100987.34;10398457;28;20100;-68
2021/03/20 16:16:39;;;;;;;2.35;1.40;;;;;;;1.17;51.75;100980.44;10388087;28;20046;-65
2021/03/20 16:21:40;;;;;;;4.20;2.45;;;;;;;0.97;52.58;100974.84;10385820;28;20044;-67
2021/03/20 16:26:42;;;;;;;4.70;1.95;;;;;;;0.92;53.62;100971.25;10384186;28;20049;-69
2021/03/20 16:31:43;;;;;;;3.85;1.63;;;;;;;0.90;53.29;100983.31;10350803;28;20045;-68
2021/03/20 16:36:44;;;;;;;2.17;1.77;;;;;;;0.61;53.40;100974.88;10407622;28;20092;-68
2021/03/20 16:41:46;;;;;;;2.45;1.50;;;;;;;0.57;52.65;100970.44;10424158;28;20498;-68
2021/03/20 16:46:47;;;;;;;4.47;1.42;;;;;;;0.75;52.46;100964.84;10405406;28;20096;-68
2021/03/20 16:51:48;;;;;;;4.65;1.60;;;;;;;0.78;52.05;100964.91;10393755;28;20046;-68
2021/03/20 16:56:50;;;;;;;2.65;1.50;;;;;;;0.54;53.35;100951.44;10389650;28;20046;-69
2021/03/20 17:01:52;;;;;;;3.80;1.80;;;;;;;0.56;53.44;100947.16;10419987;28;20084;-68
2021/03/20 17:06:54;;;;;;;3.38;1.90;;;;;;;0.62;52.62;100936.94;10412046;28;20071;-67
2021/03/20 17:11:55;;;;;;;2.33;2.00;;;;;;;0.59;52.69;100939.47;10417176;28;20053;-68
2021/03/20 17:16:56;;;;;;;3.60;2.10;;;;;;;0.57;53.54;100930.78;10393301;28;20092;-69
2021/03/20 17:21:58;;;;;;;3.22;2.15;;;;;;;0.55;53.16;100935.94;10358060;28;20472;-67
2021/03/20 17:26:59;;;;;;;5.00;1.83;;;;;;;0.46;54.14;100939.16;10380395;28;20050;-70
2021/03/20 17:32:00;;;;;;;2.22;1.70;;;;;;;0.62;52.63;100935.25;10386091;28;20061;-68
2021/03/20 17:37:02;;;;;;;3.50;2.03;;;;;;;0.49;53.85;100926.31;10423067;28;20103;-68
2021/03/20 17:42:04;;;;;;;12.73;6.45;;;;;;;0.43;54.30;100920.13;10421014;28;20154;-68
2021/03/20 17:47:06;;;;;;;9.02;2.35;;;;;;;0.49;54.65;100908.22;10424974;28;20049;-67
2021/03/20 17:52:09;;;;;;;4.10;2.95;;;;;;;0.59;54.17;100908.41;10420962;28;20492;-70
2021/03/20 17:57:10;;;;;;;3.55;2.20;;;;;;;0.63;54.34;100899.88;10401206;28;20038;-69
2021/03/20 18:02:12;;;;;;;4.60;2.80;;;;;;;0.71;54.18;100900.94;10421605;28;20049;-67
2021/03/20 18:07:13;;;;;;;3.80;2.13;;;;;;;0.72;54.18;100894.91;10420942;28;20044;-68
2021/03/20 18:12:14;;;;;;;3.90;2.47;;;;;;;0.66;54.23;100900.81;10421415;28;20038;-70
2021/03/20 18:17:16;;;;;;;4.80;2.92;;;;;;;0.61;53.97;100901.56;10427018;28;20084;-68
2021/03/20 18:22:17;;;;;;;4.30;2.45;;;;;;;0.49;54.43;100895.28;10423877;28;20487;-69
2021/03/20 18:27:18;;;;;;;6.32;2.58;;;;;;;0.54;54.62;100887.63;10421954;28;20122;-68
2021/03/20 18:32:21;;;;;;;4.95;2.70;;;;;;;0.70;54.28;100881.91;10420779;28;20061;-68
2021/03/20 18:37:23;;;;;;;3.10;2.80;;;;;;;0.67;54.41;100878.41;10421215;28;20049;-68
2021/03/20 18:42:26;;;;;;;2.97;2.15;;;;;;;0.68;54.40;100867.22;10420081;28;20120;-68
2021/03/20 18:47:33;;;;;;;4.35;3.03;;;;;;;0.47;54.14;100862.44;10421121;28;20048;-69
2021/03/20 18:52:35;;;;;;;4.88;3.20;;;;;;;0.33;55.15;100854.38;10424777;28;20051;-68
2021/03/20 18:57:37;;;;;;;5.78;2.95;;;;;;;0.44;54.47;100842.56;10436179;28;20100;-69
2021/03/20 19:02:39;;;;;;;4.78;3.83;;;;;;;0.27;55.07;100848.16;10435096;28;20103;-69
2021/03/20 19:07:41;;;;;;;4.30;3.25;;;;;;;0.25;54.76;100848.16;10435765;28;20076;-68
2021/03/20 19:12:43;;;;;;;6.57;3.45;;;;;;;0.16;54.79;100838.47;10423703;28;20060;-68
2021/03/20 19:17:46;;;;;;;4.10;3.50;;;;;;;0.25;54.97;100840.38;10414395;28;20042;-68
2021/03/20 19:22:48;;;;;;;4.47;3.65;;;;;;;0.21;54.78;100833.41;10431285;28;20049;-68
2021/03/20 19:27:49;;;;;;;5.30;4.68;;;;;;;0.18;55.29;100820.44;10428007;28;20077;-69
2021/03/20 19:32:50;;;;;;;6.60;4.40;;;;;;;0.29;55.00;100826.69;10427778;28;20072;-69
2021/03/20 19:37:53;;;;;;;6.20;5.60;;;;;;;0.27;55.05;100822.31;10393510;28;20050;-68
2021/03/20 19:42:55;;;;;;;4.70;4.30;;;;;;;0.19;55.41;100804.06;10372634;28;20044;-69
2021/03/20 19:47:58;;;;;;;4.80;4.30;;;;;;;0.22;54.91;100814.47;10407710;28;20384;-69
2021/03/20 19:53:01;;;;;;;4.95;4.05;;;;;;;0.25;54.87;100811.94;10432685;28;20053;-69
2021/03/20 19:58:06;;;;;;;5.65;5.25;;;;;;;0.19;55.37;100801.47;10432179;28;20057;-68
2021/03/20 20:03:08;;;;;;;4.90;4.50;;;;;;;0.14;54.70;100788.44;10394916;28;20377;-69
2021/03/20 20:08:10;;;;;;;6.38;5.00;;;;;;;0.09;55.38;100778.81;10392503;28;20046;-68
2021/03/20 20:13:11;;;;;;;5.45;4.75;;;;;;;0.06;55.37;100771.88;10392087;28;20050;-69
2021/03/20 20:18:21;;;;;;;5.10;4.70;;;;;;;-0.01;55.49;100768.28;10395978;28;20071;-69
2021/03/20 20:23:23;;;;;;;5.63;5.13;;;;;;;0.16;55.08;100762.63;10378984;28;20057;-69
2021/03/20 20:28:28;;;;;;;5.35;4.95;;;;;;;0.18;54.79;100748.91;10396242;28;20054;-69
2021/03/20 20:33:29;;;;;;;5.90;5.30;;;;;;;0.12;54.64;100755.63;10394709;28;20049;-69
2021/03/20 20:38:31;;;;;;;4.80;4.25;;;;;;;0.13;54.38;100750.50;10391015;28;20053;-69
2021/03/20 20:43:40;;;;;;;5.65;4.32;;;;;;;0.12;54.70;100734.94;10388262;28;20066;-68
2021/03/20 20:48:41;;;;;;;7.13;4.63;;;;;;;0.12;54.49;100742.72;10394000;28;20048;-68
2021/03/20 20:53:47;;;;;;;5.07;4.50;;;;;;;0.09;54.21;100729.72;10404893;23;20050;-61
2021/03/20 20:58:52;;;;;;;5.50;4.85;;;;;;;0.19;54.01;100726.50;10458531;28;20517;-64
2021/03/20 21:03:53;;;;;;;5.28;4.82;;;;;;;0.08;54.34;100702.13;10458874;28;20067;-63
2021/03/20 21:08:54;;;;;;;5.40;4.07;;;;;;;0.13;53.96;100700.50;10458986;28;20048;-63
2021/03/20 21:13:56;;;;;;;4.28;3.88;;;;;;;0.28;53.86;100705.13;10458131;28;20443;-64
2021/03/20 21:18:57;;;;;;;5.03;3.75;;;;;;;0.14;53.46;100697.97;10457779;28;20079;-64
2021/03/20 21:23:58;;;;;;;4.97;3.72;;;;;;;0.09;53.98;100688.34;10457663;28;20055;-65
2021/03/20 21:29:00;;;;;;;4.78;3.85;;;;;;;0.21;53.55;100681.72;10457575;28;20045;-63
2021/03/20 21:34:01;;;;;;;3.95;3.47;;;;;;;0.04;53.23;100677.91;10457559;28;20115;-62
2021/03/20 21:39:04;;;;;;;6.45;4.40;;;;;;;0.15;52.79;100672.97;10457685;28;20094;-63
2021/03/20 21:44:05;;;;;;;4.00;3.45;;;;;;;0.14;53.13;100677.28;10457180;28;20098;-62
2021/03/20 21:49:06;;;;;;;3.80;3.45;;;;;;;0.10;53.32;100659.09;10456840;28;20065;-63
2021/03/20 21:54:10;;;;;;;4.78;4.05;;;;;;;0.14;52.97;100647.97;10456983;28;20172;-64
2021/03/20 21:59:11;;;;;;;3.90;3.50;;;;;;;0.13;53.47;100649.66;10456681;28;20037;-61
2021/03/20 22:04:12;;;;;;;4.75;3.40;;;;;;;0.20;52.28;100643.78;10456867;28;20049;-64
2021/03/20 22:09:13;;;;;;;5.03;3.33;;;;;;;0.21;52.29;100639.50;10456830;28;20044;-63
2021/03/20 22:14:15;;;;;;;4.50;3.35;;;;;;;0.27;52.38;100637.03;10456039;28;20041;-64
2021/03/20 22:19:17;;;;;;;5.50;3.53;;;;;;;0.21;52.81;100626.56;10457028;28;20045;-64
2021/03/20 22:24:18;;;;;;;4.18;2.80;;;;;;;0.28;51.93;100623.25;10455701;28;20053;-63
2021/03/20 22:29:22;;;;;;;3.55;2.95;;;;;;;0.28;52.43;100623.25;10455139;28;20057;-65
2021/03/20 22:34:24;;;;;;;3.80;2.85;;;;;;;0.33;51.98;100618.19;10438051;28;20037;-64
2021/03/20 22:39:25;;;;;;;3.30;3.00;;;;;;;0.32;52.30;100606.09;10456280;28;20037;-63
2021/03/20 22:44:26;;;;;;;3.03;2.65;;;;;;;0.39;52.26;100605.34;10455679;28;20091;-64
2021/03/20 22:49:27;;;;;;;4.30;3.20;;;;;;;0.44;51.83;100603.72;10456660;28;20040;-64
2021/03/20 22:54:29;;;;;;;3.15;2.45;;;;;;;0.55;51.52;100591.88;10455442;28;20071;-64
2021/03/20 22:59:30;;;;;;;7.00;2.95;;;;;;;0.53;51.44;100592.66;10437728;28;20076;-61
2021/03/20 23:04:31;;;;;;;4.53;3.10;;;;;;;0.57;51.54;100589.28;10456747;28;20130;-63
2021/03/20 23:09:33;;;;;;;4.30;2.85;;;;;;;0.58;51.68;100576.41;10455219;28;20127;-64
2021/03/20 23:14:35;;;;;;;4.10;2.40;;;;;;;0.63;51.35;100566.13;10436540;28;20148;-63
2021/03/20 23:19:36;;;;;;;3.28;2.50;;;;;;;0.62;50.85;100561.78;10454004;28;20041;-62
2021/03/20 23:24:38;;;;;;;3.80;2.47;;;;;;;0.70;51.46;100560.19;10454343;28;20047;-63
2021/03/20 23:29:39;;;;;;;3.28;2.30;;;;;;;0.90;50.20;100555.34;10454012;28;20048;-64
2021/03/20 23:34:40;;;;;;;3.88;2.63;;;;;;;0.70;51.60;100542.09;10454261;28;20086;-64
2021/03/20 23:39:41;;;;;;;3.60;2.42;;;;;;;0.81;51.30;100540.56;10456964;28;20044;-63
2021/03/20 23:44:42;;;;;;;4.15;2.50;;;;;;;0.87;50.56;100522.53;10462174;28;20071;-64
2021/03/20 23:49:44;;;;;;;2.67;2.00;;;;;;;0.86;50.99;100513.03;10461623;28;20509;-64
2021/03/20 23:54:45;;;;;;;3.67;2.92;;;;;;;0.89;51.29;100507.03;10461193;28;20406;-62